Latest Weather Observations for Smithville

IDN60801

Issued at 4:32 pm EDT Thursday 23 November 2017 (issued every 30 minutes, with the page automatically refreshed every 10 minutes)

About weather observations | Map of weather stations | Latest weather observations for NSW | Other Formats
Station Details ID: 046142 Name: SMITHVILLE AWS Lat: -30.07 Lon: 141.00 Height: 94.0 m
Data from the previous 72 hours. | See also: Recent months at Smithville
Date/Time
EDT
Temp
°C
App
Temp
°C
Dew
Point
°C
Rel
Hum
%
Delta-T
°C
Wind Press
QNH
hPa
Press
MSL
hPa
Rain since
9am
mm
Dir  Spd
km/h
Gust
km/h
Spd
kts
Gust
kts
23/04:30pm 29.0 - 9.7 30 10.8 - - - - - - - 0.2
23/04:00pm 28.2 - 11.3 35 9.7 - - - - - - - 0.2
23/03:30pm 29.2 - 10.8 32 10.5 - - - - - - - 0.0
23/03:00pm 29.0 - 8.7 28 11.2 - - - - - - - 0.0
23/02:30pm 28.4 - 10.6 33 10.1 - - - - - - - 0.0
23/02:00pm 27.9 - 11.5 36 9.4 - - - - - - - 0.0
23/01:30pm 28.1 - 10.8 34 9.9 - - - - - - - 0.0
23/01:00pm 30.1 - 9.6 28 11.6 - - - - - - - 0.0
23/12:30pm 32.6 - 4.4 17 14.8 - - - - - - - 0.0
23/12:00pm 33.2 - 4.9 17 15.0 - - - - - - - 0.0
23/11:30am 32.9 - 5.5 18 14.7 - - - - - - - 0.0
23/11:00am 33.3 - 6.6 19 14.6 - - - - - - - 0.0
23/10:30am 32.5 - 7.4 21 13.8 - - - - - - - 0.0
23/10:00am 31.4 - 7.8 23 13.0 - - - - - - - 0.0
23/09:30am 30.7 - 7.8 24 12.6 - - - - - - - 0.0
23/09:00am 28.0 - 6.7 26 11.3 - - - - - - - 0.0
23/08:30am 27.3 - 6.1 26 11.1 - - - - - - - 0.0
23/08:00am 26.8 - 6.2 27 10.8 - - - - - - - 0.0
23/07:30am 25.5 - 5.7 28 10.2 - - - - - - - 0.0
23/07:00am 25.0 - 5.7 29 9.9 - - - - - - - 0.0
23/06:30am 24.5 - 5.3 29 9.7 - - - - - - - 0.0
23/06:00am 25.0 - 5.2 28 10.1 - - - - - - - 0.0
23/05:30am 25.2 - 5.4 28 10.1 - - - - - - - 0.0
23/05:00am 25.3 - 5.5 28 10.1 - - - - - - - 0.0
23/04:30am 25.7 - 5.3 27 10.4 - - - - - - - 0.0
23/04:00am 26.1 - 5.1 26 10.7 - - - - - - - 0.0
23/03:30am 25.8 - 3.1 23 11.2 - - - - - - - 0.0
23/03:00am 24.6 - 0.8 21 11.1 - - - - - - - 0.0
23/02:30am 23.3 - -0.2 21 10.7 - - - - - - - 0.0
23/02:00am 22.7 - -0.1 22 10.3 - - - - - - - 0.0
23/01:30am 22.8 - -0.6 21 10.5 - - - - - - - 0.0
23/01:00am 23.4 - -0.1 21 10.7 - - - - - - - 0.0
23/12:30am 24.4 - 0.0 20 11.2 - - - - - - - 0.0
23/12:00am 25.7 - -0.4 18 12.0 - - - - - - - 0.0
 
Date/Time
EDT
Temp
°C
App
Temp
°C
Dew
Point
°C
Rel
Hum
%
Delta-T
°C
Wind Press
QNH
hPa
Press
MSL
hPa
Rain since
9am
mm
Dir  Spd
km/h
Gust
km/h
Spd
kts
Gust
kts
22/11:30pm 26.0 - -0.1 18 12.1 - - - - - - - 0.0
22/11:00pm 24.7 - 0.3 20 11.3 - - - - - - - 0.0
22/10:30pm 25.9 - -0.2 18 12.1 - - - - - - - 0.0
22/10:00pm 27.3 - 0.1 17 12.8 - - - - - - - 0.0
22/09:30pm 27.8 - 0.5 17 13.0 - - - - - - - 0.0
22/09:00pm 28.3 - 0.1 16 13.4 - - - - - - - 0.0
22/08:30pm 30.1 - -0.3 14 14.5 - - - - - - - 0.0
22/08:00pm 31.9 - 0.1 13 15.5 - - - - - - - 0.0
22/07:30pm 33.1 - -0.1 12 16.2 - - - - - - - 0.0
22/07:00pm 33.5 - -1.0 11 16.7 - - - - - - - 0.0
22/06:30pm 34.0 - -1.9 10 17.1 - - - - - - - 0.0
22/06:00pm 34.0 - -0.6 11 16.9 - - - - - - - 0.0
22/05:30pm 34.6 - -0.1 11 17.1 - - - - - - - 0.0
22/05:00pm 33.3 - 0.1 12 16.3 - - - - - - - 0.0
22/04:30pm 33.0 - 0.9 13 15.9 - - - - - - - 0.0
22/04:00pm 34.1 - 1.8 13 16.4 - - - - - - - 0.0
22/03:30pm 33.3 - 2.2 14 15.8 - - - - - - - 0.0
22/03:00pm 33.9 - 1.6 13 16.3 - - - - - - - 0.0
22/02:30pm 33.1 - 3.0 15 15.5 - - - - - - - 0.0
22/02:00pm 34.2 - 2.9 14 16.2 - - - - - - - 0.0
22/01:30pm 33.0 - 2.9 15 15.5 - - - - - - - 0.0
22/01:00pm 33.4 - 4.2 16 15.3 - - - - - - - 0.0
22/12:30pm 32.1 - 4.8 18 14.4 - - - - - - - 0.0
22/12:00pm 32.1 - 4.8 18 14.4 - - - - - - - 0.0
22/11:30am 32.1 - 4.0 17 14.6 - - - - - - - 0.0
22/11:00am 31.4 - 5.8 20 13.7 - - - - - - - 0.0
22/10:30am 30.8 - 6.0 21 13.2 - - - - - - - 0.0
22/10:00am 30.2 - 6.1 22 12.8 - - - - - - - 0.0
22/09:30am 29.5 - 5.6 22 12.6 - - - - - - - 0.0
22/09:00am 28.8 - 5.0 22 12.3 - - - - - - - 0.0
22/08:30am 27.4 - 5.1 24 11.5 - - - - - - - 0.0
22/08:00am 26.5 - 4.9 25 11.0 - - - - - - - 0.0
22/07:30am 25.6 - 4.7 26 10.6 - - - - - - - 0.0
22/07:00am 24.5 - 4.3 27 10.1 - - - - - - - 0.0
22/06:30am 24.0 - 4.4 28 9.8 - - - - - - - 0.0
22/06:00am 23.6 - 4.5 29 9.5 - - - - - - - 0.0
22/05:30am 23.6 - 4.5 29 9.5 - - - - - - - 0.0
22/05:00am 24.1 - 5.0 29 9.6 - - - - - - - 0.0
22/04:30am 24.1 - 5.0 29 9.6 - - - - - - - 0.0
22/04:00am 23.9 - 5.3 30 9.4 - - - - - - - 0.0
22/03:30am 21.7 - 4.7 33 8.4 - - - - - - - 0.0
22/03:00am 22.9 - 4.4 30 9.1 - - - - - - - 0.0
22/02:30am 23.8 - 4.2 28 9.7 - - - - - - - 0.0
22/02:00am 24.8 - 4.0 26 10.3 - - - - - - - 0.0
22/01:30am 25.5 - 4.0 25 10.7 - - - - - - - 0.0
22/01:00am 25.3 - 3.9 25 10.6 - - - - - - - 0.0
22/12:30am 25.2 - 3.8 25 10.6 - - - - - - - 0.0
22/12:00am 25.1 - 3.7 25 10.6 - - - - - - - 0.0
 
Date/Time
EDT
Temp
°C
App
Temp
°C
Dew
Point
°C
Rel
Hum
%
Delta-T
°C
Wind Press
QNH
hPa
Press
MSL
hPa
Rain since
9am
mm
Dir  Spd
km/h
Gust
km/h
Spd
kts
Gust
kts
21/11:30pm 25.8 - 3.7 24 11.0 - - - - - - - 0.0
21/11:00pm 26.5 - 3.7 23 11.4 - - - - - - - 0.0
21/10:30pm 27.5 - 3.9 22 11.9 - - - - - - - 0.0
21/10:00pm 28.0 - 4.3 22 12.1 - - - - - - - 0.0
21/09:30pm 29.2 - 4.0 20 12.9 - - - - - - - 0.0
21/09:00pm 29.8 - 3.7 19 13.3 - - - - - - - 0.0
21/08:30pm 30.9 - 3.8 18 13.9 - - - - - - - 0.0
21/08:00pm 31.9 - 3.8 17 14.5 - - - - - - - 0.0
21/07:30pm 32.8 - 4.6 17 14.9 - - - - - - - 0.0
21/07:00pm 33.6 - 4.3 16 15.4 - - - - - - - 0.0
21/06:30pm 34.0 - 4.6 16 15.6 - - - - - - - 0.0
21/06:00pm 34.0 - 4.6 16 15.6 - - - - - - - 0.0
21/05:30pm 34.7 - 5.2 16 15.9 - - - - - - - 0.0
21/05:00pm 35.3 - 3.8 14 16.6 - - - - - - - 0.0
21/04:30pm 35.1 - 4.6 15 16.3 - - - - - - - 0.0
21/04:00pm 35.3 - 4.8 15 16.4 - - - - - - - 0.0
21/03:30pm 34.6 - 4.2 15 16.1 - - - - - - - 0.0
21/03:00pm 33.8 - 4.5 16 15.5 - - - - - - - 0.0
21/02:30pm 34.3 - 5.8 17 15.4 - - - - - - - 0.0
21/02:00pm 34.2 - 5.7 17 15.4 - - - - - - - 0.0
21/01:30pm 33.5 - 5.9 18 14.9 - - - - - - - 0.0
21/01:00pm 33.4 - 5.9 18 14.9 - - - - - - - 0.0
21/12:30pm 32.8 - 6.9 20 14.2 - - - - - - - 0.0
21/12:00pm 32.1 - 7.0 21 13.7 - - - - - - - 0.0
21/11:30am 30.6 - 7.1 23 12.8 - - - - - - - 0.0
21/11:00am 30.7 - 6.6 22 13.0 - - - - - - - 0.0
21/10:30am 30.0 - 6.6 23 12.6 - - - - - - - 0.0
21/10:00am 29.9 - 6.5 23 12.5 - - - - - - - 0.0
21/09:30am 28.8 - 5.6 23 12.2 - - - - - - - 0.0
21/09:00am 28.4 - 5.9 24 11.8 - - - - - - - 0.0
21/08:30am 27.3 - 5.6 25 11.3 - - - - - - - 0.0
21/08:00am 25.7 - 5.8 28 10.3 - - - - - - - 0.0
21/07:30am 24.1 - 5.5 30 9.5 - - - - - - - 0.0
21/07:00am 22.8 - 5.7 33 8.7 - - - - - - - 0.0
21/06:30am 22.5 - 5.4 33 8.6 - - - - - - - 0.0
21/06:00am 23.1 - 5.1 31 9.0 - - - - - - - 0.0
21/05:30am 24.2 - 5.5 30 9.5 - - - - - - - 0.0
21/05:00am 24.4 - 5.2 29 9.7 - - - - - - - 0.0
21/04:30am 24.6 - 5.4 29 9.8 - - - - - - - 0.0
21/04:00am 24.9 - 5.7 29 9.8 - - - - - - - 0.0
21/03:30am 25.3 - 5.5 28 10.1 - - - - - - - 0.0
21/03:00am 25.2 - 5.9 29 9.9 - - - - - - - 0.0
21/02:30am 25.3 - 6.5 30 9.8 - - - - - - - 0.0
21/02:00am 24.3 - 7.0 33 9.0 - - - - - - - 0.0
21/01:30am 23.7 - 6.9 34 8.7 - - - - - - - 0.0
21/01:00am 24.5 - 7.2 33 9.1 - - - - - - - 0.0
21/12:30am 25.4 - 7.5 32 9.5 - - - - - - - 0.0
21/12:00am 26.4 - 7.4 30 10.1 - - - - - - - 0.0
 
Date/Time
EDT
Temp
°C
App
Temp
°C
Dew
Point
°C
Rel
Hum
%
Delta-T
°C
Wind Press
QNH
hPa
Press
MSL
hPa
Rain since
9am
mm
Dir  Spd
km/h
Gust
km/h
Spd
kts
Gust
kts
20/11:30pm 27.2 - 7.6 29 10.5 - - - - - - - 0.0
20/11:00pm 27.9 - 7.7 28 10.9 - - - - - - - 0.0
20/10:30pm 28.4 - 7.6 27 11.3 - - - - - - - 0.0
20/10:00pm 28.9 - 7.5 26 11.6 - - - - - - - 0.0
20/09:30pm 29.4 - 7.3 25 12.0 - - - - - - - 0.0
20/09:00pm 29.9 - 7.8 25 12.1 - - - - - - - 0.0
20/08:30pm 30.7 - 7.2 23 12.8 - - - - - - - 0.0
20/08:00pm 31.3 - 7.1 22 13.2 - - - - - - - 0.0
20/07:30pm 32.2 - 7.1 21 13.7 - - - - - - - 0.0
20/07:00pm 33.0 - 6.3 19 14.5 - - - - - - - 0.0
20/06:30pm 33.5 - 5.9 18 14.9 - - - - - - - 0.0
20/06:00pm 33.2 - 6.5 19 14.5 - - - - - - - 0.0
20/05:30pm 33.5 - 6.7 19 14.7 - - - - - - - 0.0
20/05:00pm 34.9 - 7.9 19 15.2 - - - - - - - 0.0

Other Formats:

Comma delimited format used in spreadsheet applications
http://www.bom.gov.au/fwo/IDN60801/IDN60801.94796.axf

JavaScript Object Notation format (JSON) in row-major order
http://www.bom.gov.au/fwo/IDN60801/IDN60801.94796.json